Flight Track Log - Related Links

Times and Time Zones

All times are in EDT time to prevent confusion due to time zone crossing. See the LXJ262 flight status page for this flight to view local times or setup timezone preferences in your user account.

Time Position Orientation Groundspeed Altitude Reporting Facility
EDT Latitude Longitude Course Direction KTS MPH feet Rate Location/Type
Sat 01:17:04 PM 26.6653 -79.8764 159° South 290 334 7,000  Level Miami Center
Sat 01:18:04 PM 26.6611 -79.7856 93° East 279 321 7,000 300 Level Miami Center
Sat 01:19:04 PM 26.6542 -79.7089 96° East 271 312 7,600 1,850 Climbing Miami Center
Sat 01:20:00 PM 26.2264 -79.5228 158° South  Level FlightAware Approximate
Sat 01:20:04 PM 26.6456 -79.6156 96° East 278 320 10,700  Level Miami Center
Sat 01:21:00 PM 26.1031 -79.4680 158° South  Level FlightAware Approximate
Sat 01:21:04 PM 26.6283 -79.5339 103° East 285 328 13,100  Level Miami Center
Sat 01:22:00 PM 25.9790 -79.4195 159° South  Level FlightAware Approximate
Sat 01:22:03 PM 26.6200 -79.4128 94° East 333 383 14,500  Level Miami Center
Sat 01:23:03 PM 26.6114 -79.3033 95° East 377 434 15,000 347 Climbing Miami Center
Sat 01:24:04 PM 26.6028 -79.1825 95° East 387 445 15,200 843 Climbing Miami Center
Sat 01:25:04 PM 26.5881 -79.0567 97° East 397 457 16,700 1,664 Climbing Miami Center
Sat 01:26:03 PM 26.5756 -78.9264 96° East 410 472 18,500 1,866 Climbing Miami Center
Sat 01:27:03 PM 26.5667 -78.7986 94° East 417 480 20,400 2,000 Climbing Miami Center
Sat 01:28:03 PM 26.5392 -78.6656 103° East 433 498 22,500 1,300 Climbing Miami Center
Sat 01:29:03 PM 26.4569 -78.5622 132° Southeast 407 468 23,000 500 Climbing Miami Center
Sat 01:30:03 PM 26.3872 -78.4336 121° Southeast 443 510 23,500 950 Climbing Miami Center
Sat 01:31:03 PM 26.3111 -78.3144 125° Southeast 465 535 24,900 1,450 Climbing Miami Center
Sat 01:32:03 PM 26.2392 -78.1861 122° Southeast 476 548 26,400 1,537 Climbing Miami Center
Sat 01:33:04 PM 26.1650 -78.0650 124° Southeast 476 548 28,000 1,500 Climbing Miami Center
Sat 01:34:03 PM 26.0889 -77.9369 123° Southeast 487 560 29,400 1,450 Climbing Miami Center
Sat 01:35:04 PM 26.0167 -77.8067 122° Southeast 492 566 30,900 1,500 Climbing Miami Center
Sat 01:36:03 PM 25.9442 -77.6814 123° Southeast 487 560 32,400 1,513 Climbing Miami Center
Sat 01:37:03 PM 25.8697 -77.5586 124° Southeast 480 552 33,900 1,600 Climbing Miami Center
Sat 01:38:03 PM 25.7886 -77.4242 124° Southeast 485 558 35,600 1,550 Climbing Miami Center
Sat 01:39:03 PM 25.7158 -77.2969 122° Southeast 485 558 37,000 700 Climbing Miami Center
Sat 01:40:03 PM 25.6389 -77.1700 124° Southeast 492 566 37,000  Level Miami Center
Sat 01:41:03 PM 25.5639 -77.0431 123° Southeast 491 565 37,000  Level Miami Center
Sat 01:42:03 PM 25.4867 -76.9139 123° Southeast 491 565 37,000  Level Miami Center
Sat 01:43:03 PM 25.4136 -76.7897 123° Southeast 490 564 37,000  Level Miami Center
Sat 01:44:03 PM 25.3339 -76.6633 125° Southeast 490 564 37,000  Level Miami Center
Sat 01:45:03 PM 25.2586 -76.5369 123° Southeast 490 564 37,000  Level Miami Center
Sat 01:46:03 PM 25.1914 -76.4247 123° Southeast 490 564 37,000  Level Miami Center
Sat 01:47:03 PM 25.1136 -76.2986 124° Southeast 491 565 37,000  Level Miami Center
Sat 01:48:03 PM 25.0358 -76.1731 124° Southeast 491 565 37,000  Level Miami Center
Sat 01:49:03 PM 24.9578 -76.0472 124° Southeast 491 565 37,000  Level Miami Center
Sat 01:50:03 PM 24.8839 -75.9311 125° Southeast 485 558 37,000  Level Miami Center
Sat 01:51:03 PM 24.8058 -75.8011 123° Southeast 485 558 37,000  Level Miami Center
Sat 01:52:03 PM 24.7294 -75.6781 124° Southeast 490 564 37,000  Level Miami Center
Sat 01:53:03 PM 24.6553 -75.5531 123° Southeast 490 564 37,000 -200 Level Miami Center
Sat 01:54:03 PM 24.5747 -75.4306 126° Southeast 490 564 36,600 -950 Descending Miami Center
Sat 01:55:03 PM 24.4961 -75.3014 124° Southeast 490 564 35,100 -793 Descending Miami Center
Sat 01:56:04 PM 24.4217 -75.1814 124° Southeast 490 564 35,000 -50 Descending Miami Center
Sat 01:57:04 PM 24.3450 -75.0592 125° Southeast 490 564 35,000  Level Miami Center
Sat 01:58:04 PM 24.2683 -74.9328 124° Southeast 495 570 35,000  Level Miami Center
Sat 01:59:04 PM 24.1872 -74.8064 125° Southeast 495 570 35,000  Level Miami Center
Sat 02:00:04 PM 24.1058 -74.6803 125° Southeast 495 570 35,000  Level Miami Center
Sat 02:01:04 PM 24.0289 -74.5564 124° Southeast 501 577 35,000  Level Miami Center
Sat 02:02:04 PM 23.9494 -74.4306 125° Southeast 501 577 35,000  Level Miami Center
Sat 02:03:04 PM 23.8703 -74.3072 125° Southeast 501 577 35,000  Level Miami Center
Sat 02:04:04 PM 23.7864 -74.1728 124° Southeast 501 577 35,000  Level Miami Center
Sat 02:05:04 PM 23.7025 -74.0475 126° Southeast 501 577 35,000  Level Miami Center
Sat 02:06:04 PM 23.6228 -73.9244 125° Southeast 496 571 35,000  Level Miami Center
Sat 02:07:03 PM 23.5472 -73.7994 123° Southeast 496 571 35,000  Level Miami Center
Sat 02:08:04 PM 23.4675 -73.6789 126° Southeast 496 571 35,000  Level Miami Center
Sat 02:09:04 PM 23.3875 -73.5542 125° Southeast 496 571 35,000  Level Miami Center
Sat 02:10:04 PM 23.3094 -73.4297 124° Southeast 490 564 35,000  Level Miami Center
Sat 02:11:04 PM 23.2272 -73.3075 126° Southeast 495 570 35,000  Level Miami Center
Sat 02:12:03 PM 23.1511 -73.1856 124° Southeast 495 570 35,000  Level Miami Center
Sat 02:13:04 PM 23.0731 -73.0658 125° Southeast 490 564 35,000  Level Miami Center
Sat 02:14:04 PM 22.9925 -72.9442 126° Southeast 490 564 35,000  Level Miami Center
Sat 02:15:04 PM 22.9122 -72.8247 126° Southeast 490 564 35,000  Level Miami Center
Sat 02:16:03 PM 22.8336 -72.7033 125° Southeast 490 564 35,000  Level Miami Center
Sat 02:17:04 PM 22.7550 -72.5797 125° Southeast 495 570 35,000  Level Miami Center
Sat 02:18:04 PM 22.6744 -72.4633 127° Southeast 490 564 35,000  Level Miami Center
Sat 02:19:04 PM 22.5956 -72.3378 124° Southeast 490 564 35,000  Level Miami Center
Sat 02:20:04 PM 22.5147 -72.2169 126° Southeast 490 564 35,000  Level Miami Center
Sat 02:21:04 PM 22.4358 -72.0964 125° Southeast 495 570 35,000  Level Miami Center
Sat 02:22:04 PM 22.3525 -71.9714 126° Southeast 495 570 35,000  Level Miami Center
Sat 02:23:03 PM 22.2714 -71.8533 127° Southeast 495 570 35,000  Level Miami Center
Sat 02:24:04 PM 22.1903 -71.7311 126° Southeast 495 570 35,000  Level Miami Center
Sat 02:25:04 PM 22.1264 -71.6328 125° Southeast 495 570 35,000  Level Miami Center
Sat 02:26:03 PM 22.0383 -71.5042 126° Southeast 495 570 35,000  Level Miami Center
Sat 02:27:03 PM 21.9547 -71.3800 126° Southeast 495 570 35,000  Level Miami Center
Sat 02:28:03 PM 21.8731 -71.2561 125° Southeast 500 575 35,000  Level Miami Center
Sat 02:29:03 PM 21.7933 -71.1342 125° Southeast 500 575 35,000  Level Miami Center
Sat 02:30:03 PM 21.7094 -71.0106 126° Southeast 505 581 35,000  Level Miami Center
Sat 02:31:03 PM 21.6253 -70.8850 126° Southeast 505 581 35,000  Level Miami Center
Sat 02:32:03 PM 21.5411 -70.7617 126° Southeast 510 587 35,000  Level Miami Center
Sat 02:33:03 PM 21.4550 -70.6386 127° Southeast 515 593 35,000  Level Miami Center
Sat 02:34:03 PM 21.3708 -70.5200 127° Southeast 510 587 35,000  Level Miami Center
Sat 02:35:03 PM 21.2844 -70.3953 127° Southeast 515 593 35,000  Level Miami Center
Sat 02:36:03 PM 21.2000 -70.2747 127° Southeast 515 593 35,000  Level Miami Center
Sat 02:37:03 PM 21.1133 -70.1478 126° Southeast 515 593 35,000  Level Miami Center
Sat 02:38:03 PM 21.0197 -70.0150 127° Southeast 515 593 35,000  Level Miami Center
Sat 02:39:03 PM 20.9350 -69.8861 125° Southeast 515 593 35,000  Level Miami Center
Sat 02:40:03 PM 20.8439 -69.7622 128° Southeast 520 598 35,000  Level Miami Center
Sat 02:41:03 PM 20.7589 -69.6381 126° Southeast 520 598 35,000  Level Miami Center
Sat 02:42:04 PM 20.6719 -69.5167 127° Southeast 520 598 35,000  Level Miami Center
Sat 02:43:04 PM 20.5867 -69.3906 126° Southeast 520 598 35,000  Level Miami Center
Sat 02:44:04 PM 20.4975 -69.2672 128° Southeast 520 598 35,000  Level Miami Center
Sat 02:45:03 PM 20.4103 -69.1442 127° Southeast 526 605 35,000  Level Miami Center
Sat 02:46:03 PM 20.3228 -69.0211 127° Southeast 521 600 35,000  Level Miami Center
Sat 02:47:03 PM 20.2353 -68.8958 127° Southeast 521 600 35,000  Level Miami Center
Sat 02:48:03 PM 20.1500 -68.7728 126° Southeast 526 605 35,000  Level Miami Center
Sat 02:49:03 PM 20.0625 -68.6503 127° Southeast 526 605 35,000  Level Miami Center
Sat 02:50:03 PM 19.9725 -68.5258 128° Southeast 526 605 35,000  Level Miami Center
Sat 02:51:03 PM 19.9069 -68.4264 125° Southeast 526 605 35,000  Level Miami Center
Sat 02:52:16 PM 19.8333 -68.2167 110° East 530 610 35,000  Level San Juan Center
Sat 02:53:16 PM 19.8000 -68.0500 102° East 540 621 35,000  Level San Juan Center
Sat 02:54:16 PM 19.7500 -67.9000 109° East 530 610 35,000  Level San Juan Center
Sat 02:55:17 PM 19.7000 -67.7500 109° East 530 610 35,000  Level San Juan Center
Sat 02:56:17 PM 19.6500 -67.6000 109° East 530 610 35,000  Level San Juan Center
Sat 02:57:17 PM 19.6167 -67.4500 103° East 530 610 35,000  Level San Juan Center
Sat 02:58:18 PM 19.5667 -67.3000 109° East 530 610 35,000  Level San Juan Center
Sat 02:59:18 PM 19.5167 -67.1500 109° East 540 621 35,000  Level San Juan Center
Sat 03:00:18 PM 19.4667 -67.0000 109° East 530 610 35,000  Level San Juan Center
Sat 03:01:19 PM 19.4167 -66.8500 109° East 530 610 35,000  Level San Juan Center
Sat 03:02:19 PM 19.3833 -66.7167 105° East 530 610 35,000  Level San Juan Center
Sat 03:03:19 PM 19.3333 -66.5500 108° East 540 621 35,000  Level San Juan Center
Sat 03:04:20 PM 19.2833 -66.4000 109° East 530 610 35,000  Level San Juan Center
Sat 03:05:20 PM 19.2333 -66.2500 109° East 530 610 35,000  Level San Juan Center
Sat 03:06:20 PM 19.1833 -66.1000 109° East 530 610 35,000  Level San Juan Center
Sat 03:07:20 PM 19.1333 -65.9500 109° East 530 610 35,000  Level San Juan Center
Sat 03:08:21 PM 19.1000 -65.8000 103° East 550 633 35,000  Level San Juan Center
Sat 03:09:21 PM 19.0500 -65.6500 109° East 530 610 35,000  Level San Juan Center
Sat 03:10:21 PM 19.0000 -65.5000 109° East 540 621 35,000  Level San Juan Center
Sat 03:11:22 PM 18.9500 -65.3500 109° East 540 621 35,000  Level San Juan Center
Sat 03:12:22 PM 18.9000 -65.2000 109° East 530 610 35,000 -500 Level San Juan Center
Sat 03:13:22 PM 18.8500 -65.0500 109° East 530 610 34,000 -1,500 Descending San Juan Center
Sat 03:14:22 PM 18.8000 -64.9000 109° East 530 610 32,000 -1,983 Descending San Juan Center
Sat 03:15:23 PM 18.7500 -64.7500 109° East 520 598 30,000 -2,380 Descending San Juan Center
Sat 03:16:23 PM 18.7000 -64.6333 114° Southeast 500 575 27,200 -2,950 Descending San Juan Center
Sat 03:17:23 PM 18.6667 -64.4833 103° East 490 564 24,100 -3,124 Descending San Juan Center
Sat 03:18:24 PM 18.6167 -64.3500 112° Southeast 470 541 20,900 -3,174 Descending San Juan Center
Sat 03:19:24 PM 18.5667 -64.2333 114° Southeast 460 529 17,700 -3,200 Descending San Juan Center
Sat 03:20:24 PM 18.5333 -64.1000 105° East 430 495 14,500 -2,331 Descending San Juan Center
Sat 03:21:25 PM 18.5000 -64.0000 109° East 370 426 13,000 -744 Descending San Juan Center
Sat 03:22:25 PM 18.4667 -63.9000 109° East 390 449 13,000  Level San Juan Center
Sat 03:23:25 PM 18.4333 -63.7833 107° East 410 472 13,000  Level San Juan Center
Sat 03:24:26 PM 18.3833 -63.6667 114° Southeast 430 495 13,000  Level San Juan Center
Sat 03:26:00 PM 18.2818 -63.4904 124° Southeast  Level FlightAware Approximate
Sat 03:33:00 PM 18.0410 -63.1089 125° Southeast  Level Estimated
Sat 03:34:00 PM 18.0410 -63.1089 125° Southeast  Level Estimated
Sat 03:35:00 PM 18.0410 -63.1089 125° Southeast  Level Estimated
Sat 03:36:00 PM 18.0410 -63.1089 125° Southeast  Level Estimated
Sat 03:37:00 PM 18.0410 -63.1089 125° Southeast  Level Estimated
Sat 03:38:00 PM 18.0410 -63.1089 125° Southeast  Level Estimated
Sat 03:39:00 PM 18.0410 -63.1089 125° Southeast  Level Estimated
Sat 03:40:00 PM 18.0410 -63.1089 125° Southeast  Level Estimated
Sat 03:41:00 PM 18.0410 -63.1089 125° Southeast  Level Estimated
Sat 03:42:00 PM 18.0410 -63.1089 125° Southeast  Level Estimated
Sat 03:43:00 PM 18.0410 -63.1089 125° Southeast  Level Estimated
Sat 03:44:00 PM 18.0410 -63.1089 125° Southeast  Level Estimated
Sat 03:45:00 PM 18.0410 -63.1089 125° Southeast  Level Estimated
Sat 03:46:00 PM 18.0410 -63.1089 125° Southeast  Level Estimated
Sat 03:47:00 PM 18.0410 -63.1089 125° Southeast  Level Estimated
Sat 03:48:00 PM 18.0410 -63.1089 125° Southeast  Level Estimated

Login

Don't have an account? Register now (free) for customized features, flight alerts, and more!